Time;durP1;ratioP1;P1;durP2;ratioP2;P2;SDS_P1;SDS_P2;PMS_P1;PMS_P2;Temp;Humidity;BMP_temperature;BMP_pressure;BME280_temperature;BME280_humidity;BME280_pressure;Samples;Min_cycle;Max_cycle;Signal;HPM_P1;HPM_P2
2021/09/02 00:01:51;;;;;;;9.15;4.93;;;;;;;16.90;80.68;102951.19;5073695;28;20127;-38
2021/09/02 00:04:19;;;;;;;8.85;4.70;;;;;;;16.88;80.69;102955.13;5073958;28;20053;-38
2021/09/02 00:06:48;;;;;;;7.82;3.97;;;;;;;16.90;80.84;102959.63;5072884;28;20076;-34
2021/09/02 00:09:16;;;;;;;6.38;3.88;;;;;;;16.88;80.82;102955.13;5074245;28;20144;-42
2021/09/02 00:11:44;;;;;;;7.28;4.20;;;;;;;16.89;80.89;102961.63;5073673;28;20058;-42
2021/09/02 00:14:13;;;;;;;7.55;4.20;;;;;;;16.90;80.79;102956.81;5073057;28;20123;-38
2021/09/02 00:16:42;;;;;;;6.40;3.40;;;;;;;16.88;80.86;102951.47;5073479;28;20119;-40
2021/09/02 00:19:10;;;;;;;5.72;3.33;;;;;;;16.89;80.78;102953.16;5071871;28;20499;-40
2021/09/02 00:21:38;;;;;;;6.32;3.50;;;;;;;16.88;81.03;102957.94;5073565;28;20098;-36
2021/09/02 00:24:07;;;;;;;6.07;3.20;;;;;;;16.90;81.10;102956.81;5073648;28;20048;-35
2021/09/02 00:26:35;;;;;;;6.13;3.80;;;;;;;16.86;81.13;102951.75;5072954;28;20139;-34
2021/09/02 00:29:03;;;;;;;7.22;4.28;;;;;;;16.87;80.97;102958.22;5072387;28;20051;-35
2021/09/02 00:31:31;;;;;;;7.90;4.45;;;;;;;16.86;81.20;102960.22;5073205;28;20083;-42
2021/09/02 00:33:59;;;;;;;7.00;4.03;;;;;;;16.86;81.17;102960.22;5072818;28;20045;-40
2021/09/02 00:36:26;;;;;;;8.75;4.13;;;;;;;16.86;81.26;102963.03;5072832;28;20095;-37
2021/09/02 00:38:54;;;;;;;5.18;3.55;;;;;;;16.87;81.27;102959.09;5073277;28;20052;-36
2021/09/02 00:41:23;;;;;;;4.63;2.97;;;;;;;16.87;81.23;102963.88;5072898;28;20067;-38
2021/09/02 00:43:51;;;;;;;5.05;3.08;;;;;;;16.86;81.15;102960.22;5072795;28;20045;-36
2021/09/02 00:46:20;;;;;;;5.45;3.58;;;;;;;16.87;81.03;102953.44;5073416;28;20048;-40
2021/09/02 00:48:49;;;;;;;6.75;3.47;;;;;;;16.86;81.15;102951.75;5072491;28;20044;-37
2021/09/02 00:51:18;;;;;;;5.22;3.47;;;;;;;16.86;81.19;102948.94;5073250;28;20474;-37
2021/09/02 00:53:47;;;;;;;6.72;3.50;;;;;;;16.85;81.24;102950.06;5072712;28;20045;-42
2021/09/02 00:56:15;;;;;;;5.95;3.50;;;;;;;16.84;81.41;102948.38;5072574;28;20052;-35
2021/09/02 00:58:44;;;;;;;6.75;4.25;;;;;;;16.83;81.46;102941.03;5072631;28;20041;-37
2021/09/02 01:01:12;;;;;;;7.05;4.03;;;;;;;16.82;81.56;102944.16;5062298;28;20048;-38
2021/09/02 01:03:40;;;;;;;11.07;3.92;;;;;;;16.80;81.69;102947.25;5072115;28;20033;-40
2021/09/02 01:06:09;;;;;;;7.90;4.78;;;;;;;16.80;81.70;102946.41;5072915;28;20515;-38
2021/09/02 01:08:37;;;;;;;6.20;3.90;;;;;;;16.79;81.65;102951.22;5072076;28;20485;-38
2021/09/02 01:11:05;;;;;;;7.95;4.40;;;;;;;16.80;81.73;102946.41;5072490;28;20051;-38
2021/09/02 01:13:32;;;;;;;9.25;5.07;;;;;;;16.80;81.75;102952.06;5072663;28;20465;-38
2021/09/02 01:16:02;;;;;;;8.00;4.95;;;;;;;16.78;81.82;102946.75;5071930;28;20053;-36
2021/09/02 01:18:29;;;;;;;10.65;5.25;;;;;;;16.78;82.02;102941.09;5072500;28;20131;-37
2021/09/02 01:20:57;;;;;;;6.47;4.03;;;;;;;16.79;82.08;102950.38;5072381;28;20040;-39
2021/09/02 01:23:26;;;;;;;6.93;4.20;;;;;;;16.78;82.36;102946.75;5072202;28;20069;-35
2021/09/02 01:25:54;;;;;;;7.38;4.57;;;;;;;16.78;82.49;102943.91;5072004;28;20048;-40
2021/09/02 01:28:22;;;;;;;7.70;4.40;;;;;;;16.77;82.48;102936.59;5052495;28;20045;-37
2021/09/02 01:30:49;;;;;;;7.28;5.03;;;;;;;16.78;82.68;102931.81;5069970;28;20040;-37
2021/09/02 01:33:18;;;;;;;8.20;4.95;;;;;;;16.77;82.92;102930.97;5072470;28;20057;-40
2021/09/02 01:35:46;;;;;;;9.43;6.22;;;;;;;16.78;83.11;102937.44;5071899;28;20499;-39
2021/09/02 01:38:13;;;;;;;12.45;7.28;;;;;;;16.76;83.46;102934.06;5071437;28;20052;-34
2021/09/02 01:40:44;;;;;;;11.05;6.63;;;;;;;16.76;83.64;102934.91;5072123;28;20048;-41
2021/09/02 01:43:15;;;;;;;9.40;6.07;;;;;;;16.77;83.68;102930.09;5072219;28;20047;-39
2021/09/02 01:45:44;;;;;;;16.25;9.30;;;;;;;16.75;83.93;102932.38;5071045;28;20484;-41
2021/09/02 01:48:11;;;;;;;17.23;10.43;;;;;;;16.74;84.05;102937.16;5071053;28;20047;-41
2021/09/02 01:50:41;;;;;;;15.77;9.88;;;;;;;16.73;84.15;102920.53;5070993;28;20476;-36
2021/09/02 01:53:10;;;;;;;17.05;8.52;;;;;;;16.73;84.40;102929.00;5072182;28;20052;-39
2021/09/02 01:55:38;;;;;;;12.05;7.75;;;;;;;16.71;84.40;102932.09;5071583;28;20082;-41
2021/09/02 01:58:08;;;;;;;15.00;9.32;;;;;;;16.71;84.59;102932.09;5071459;28;20427;-42
2021/09/02 02:00:36;;;;;;;12.00;7.30;;;;;;;16.70;84.70;102932.41;5071552;28;20052;-35
2021/09/02 02:03:05;;;;;;;9.70;6.70;;;;;;;16.70;84.80;102932.41;5071676;28;20118;-40
2021/09/02 02:05:34;;;;;;;16.77;10.25;;;;;;;16.70;84.77;102930.41;5069831;28;20049;-39
2021/09/02 02:08:03;;;;;;;18.27;11.20;;;;;;;16.69;84.73;102930.72;5071644;28;20056;-40
2021/09/02 02:10:31;;;;;;;12.25;8.07;;;;;;;16.66;84.73;102937.75;5071353;28;20076;-39
2021/09/02 02:13:01;;;;;;;16.15;9.65;;;;;;;16.64;84.60;102933.53;5070131;28;20160;-37
2021/09/02 02:15:31;;;;;;;12.68;8.73;;;;;;;16.63;84.57;102931.81;5070127;28;20049;-40
2021/09/02 02:17:59;;;;;;;17.85;10.80;;;;;;;16.61;84.33;102926.47;5071406;28;20051;-34
2021/09/02 02:20:27;;;;;;;15.95;9.35;;;;;;;16.59;84.36;102925.91;5070974;28;20522;-39
2021/09/02 02:22:55;;;;;;;11.93;8.48;;;;;;;16.58;84.30;102934.69;5071299;28;20087;-40
2021/09/02 02:25:22;;;;;;;12.75;7.43;;;;;;;16.58;84.16;102927.09;5071647;28;20049;-37
2021/09/02 02:27:50;;;;;;;17.88;10.02;;;;;;;16.59;84.11;102927.91;5070169;28;20052;-37
2021/09/02 02:30:19;;;;;;;14.68;9.32;;;;;;;16.59;83.84;102927.91;5071330;28;20048;-44
2021/09/02 02:32:49;;;;;;;10.18;6.57;;;;;;;16.58;83.94;102927.09;5070508;28;20047;-40
2021/09/02 02:35:18;;;;;;;11.35;7.70;;;;;;;16.59;84.00;102925.06;5071346;28;20075;-39
2021/09/02 02:37:47;;;;;;;12.43;7.22;;;;;;;16.59;83.73;102917.47;5071087;28;20143;-36
2021/09/02 02:40:16;;;;;;;13.73;8.27;;;;;;;16.59;83.43;102910.97;5070975;28;20086;-40
2021/09/02 02:42:45;;;;;;;10.93;6.82;;;;;;;16.57;83.77;102908.47;5070705;28;20068;-38
2021/09/02 02:45:13;;;;;;;13.23;8.27;;;;;;;16.57;83.83;102908.47;5071136;28;20136;-39
2021/09/02 02:47:41;;;;;;;15.48;8.43;;;;;;;16.57;83.71;102908.47;5070398;28;20048;-39
2021/09/02 02:50:11;;;;;;;18.23;9.45;;;;;;;16.57;83.75;102907.63;5071152;28;20052;-42
2021/09/02 02:52:38;;;;;;;13.18;9.00;;;;;;;16.54;83.68;102898.63;5070838;28;20044;-40
2021/09/02 02:55:07;;;;;;;16.73;9.40;;;;;;;16.52;83.93;102900.03;5071007;28;20068;-38
2021/09/02 02:57:35;;;;;;;14.30;8.85;;;;;;;16.49;83.93;102892.16;5070907;28;20040;-40
2021/09/02 03:00:05;;;;;;;11.90;8.05;;;;;;;16.47;84.05;102891.59;5070796;28;20060;-41
2021/09/02 03:02:33;;;;;;;14.73;8.07;;;;;;;16.46;84.01;102889.91;5070128;28;20119;-39
2021/09/02 03:05:01;;;;;;;10.50;5.55;;;;;;;16.45;84.11;102893.88;5071046;28;20132;-42
2021/09/02 03:07:30;;;;;;;8.73;5.60;;;;;;;16.44;84.22;102892.19;5070318;28;20048;-39
2021/09/02 03:09:58;;;;;;;8.48;4.88;;;;;;;16.43;84.15;102894.16;5070193;28;20040;-44
2021/09/02 03:12:26;;;;;;;6.28;4.15;;;;;;;16.43;84.17;102894.16;5070754;28;20407;-42
2021/09/02 03:14:53;;;;;;;10.05;5.32;;;;;;;16.44;84.12;102897.81;5070589;28;20059;-42
2021/09/02 03:17:21;;;;;;;8.48;4.50;;;;;;;16.44;84.07;102895.00;5070170;28;20040;-38
2021/09/02 03:19:49;;;;;;;7.10;3.97;;;;;;;16.44;83.95;102897.81;5070525;28;20048;-43
2021/09/02 03:22:17;;;;;;;6.88;4.10;;;;;;;16.43;84.04;102890.50;5070256;28;20048;-40
2021/09/02 03:24:46;;;;;;;10.23;4.68;;;;;;;16.42;83.97;102895.28;5070553;28;20411;-40
2021/09/02 03:27:13;;;;;;;6.78;3.47;;;;;;;16.41;83.91;102904.03;5070810;28;20102;-41
2021/09/02 03:29:41;;;;;;;7.10;3.17;;;;;;;16.39;84.00;102900.66;5069761;28;20522;-40
2021/09/02 03:32:09;;;;;;;8.00;3.17;;;;;;;16.38;83.95;102893.34;5071058;28;20106;-42
2021/09/02 03:34:37;;;;;;;5.85;3.30;;;;;;;16.35;83.96;102900.41;5070258;28;20051;-42
2021/09/02 03:37:05;;;;;;;5.97;2.88;;;;;;;16.36;83.82;102901.25;5070064;28;20052;-37
2021/09/02 03:39:33;;;;;;;7.47;2.70;;;;;;;16.35;83.91;102889.16;5085870;28;20415;-42
2021/09/02 03:42:02;;;;;;;9.68;3.20;;;;;;;16.34;83.84;102897.88;5070602;28;20083;-40
2021/09/02 03:44:30;;;;;;;7.43;3.08;;;;;;;16.33;83.60;102899.00;5069557;28;20123;-40
2021/09/02 03:46:58;;;;;;;7.97;2.78;;;;;;;16.33;83.54;102899.84;5071053;28;20056;-38
2021/09/02 03:49:26;;;;;;;6.78;2.63;;;;;;;16.33;83.58;102908.31;5070049;28;20484;-41
2021/09/02 03:51:53;;;;;;;3.85;2.20;;;;;;;16.33;83.60;102907.47;5070014;28;20128;-35
2021/09/02 03:54:21;;;;;;;4.43;1.98;;;;;;;16.34;83.62;102904.38;5070129;28;20037;-41
2021/09/02 03:56:49;;;;;;;4.10;2.03;;;;;;;16.36;83.43;102906.91;5070564;28;20053;-41
2021/09/02 03:59:18;;;;;;;4.78;2.10;;;;;;;16.38;83.56;102901.81;5065307;28;20055;-40
2021/09/02 04:01:46;;;;;;;5.43;2.22;;;;;;;16.39;83.48;102903.47;5067339;28;20044;-39
2021/09/02 04:04:14;;;;;;;3.60;1.90;;;;;;;16.40;83.45;102902.34;5067857;28;20448;-41
2021/09/02 04:06:41;;;;;;;4.07;2.05;;;;;;;16.42;83.47;102900.06;5070066;28;20052;-41
2021/09/02 04:09:09;;;;;;;5.47;2.03;;;;;;;16.42;83.42;102900.91;5070168;28;20044;-39
2021/09/02 04:11:37;;;;;;;4.57;2.20;;;;;;;16.44;83.32;102903.44;5071640;28;20041;-39
2021/09/02 04:14:05;;;;;;;6.00;2.47;;;;;;;16.43;83.45;102896.13;5073738;28;20041;-39
2021/09/02 04:16:34;;;;;;;6.13;2.50;;;;;;;16.44;83.56;102892.19;5073370;28;20383;-40
2021/09/02 04:19:02;;;;;;;4.75;2.10;;;;;;;16.42;83.73;102900.06;5073272;28;20076;-37
2021/09/02 04:21:30;;;;;;;4.35;2.30;;;;;;;16.42;83.55;102886.84;5073683;28;20053;-35
2021/09/02 04:23:57;;;;;;;5.65;2.58;;;;;;;16.42;83.69;102894.44;5074003;28;20210;-34
2021/09/02 04:26:25;;;;;;;4.47;2.08;;;;;;;16.41;83.66;102893.59;5072813;28;20415;-42
2021/09/02 04:28:53;;;;;;;4.38;2.08;;;;;;;16.39;83.57;102890.22;5073543;28;20040;-37
2021/09/02 04:31:20;;;;;;;4.47;2.20;;;;;;;16.40;83.63;102893.88;5073447;28;20048;-40
2021/09/02 04:33:49;;;;;;;4.38;1.95;;;;;;;16.40;83.47;102891.06;5072923;28;20106;-37
2021/09/02 04:36:17;;;;;;;4.03;1.90;;;;;;;16.40;83.61;102893.88;5073082;28;20040;-41
2021/09/02 04:38:45;;;;;;;4.45;2.03;;;;;;;16.40;83.56;102907.97;5073497;28;20056;-38
2021/09/02 04:41:13;;;;;;;6.25;2.10;;;;;;;16.39;83.57;102906.28;5072855;28;20036;-36
2021/09/02 04:43:40;;;;;;;5.63;2.72;;;;;;;16.38;83.65;102908.28;5073232;28;20058;-41
2021/09/02 04:46:11;;;;;;;7.63;3.03;;;;;;;16.38;83.49;102910.25;5072861;28;20134;-40
2021/09/02 04:48:39;;;;;;;7.53;3.60;;;;;;;16.35;83.45;102905.19;5072875;28;20044;-41
2021/09/02 04:51:09;;;;;;;8.13;3.97;;;;;;;16.33;83.53;102908.31;5072855;28;20464;-37
2021/09/02 04:53:36;;;;;;;9.35;3.90;;;;;;;16.31;83.64;102899.28;5072487;28;20048;-40
2021/09/02 04:56:05;;;;;;;6.07;3.22;;;;;;;16.29;83.45;102895.91;5072585;28;20546;-41
2021/09/02 04:58:32;;;;;;;5.78;2.83;;;;;;;16.27;83.24;102905.78;5072904;28;20048;-39
2021/09/02 05:01:00;;;;;;;7.05;3.13;;;;;;;16.25;82.86;102897.63;5072021;28;20057;-39
2021/09/02 05:03:28;;;;;;;6.00;2.80;;;;;;;16.23;82.60;102902.69;5072813;28;20131;-37
2021/09/02 05:05:56;;;;;;;6.05;2.97;;;;;;;16.22;82.45;102903.81;5072650;28;20041;-41
2021/09/02 05:08:25;;;;;;;3.45;2.17;;;;;;;16.23;82.27;102897.06;5071893;28;20388;-39
2021/09/02 05:10:55;;;;;;;4.32;2.05;;;;;;;16.23;82.17;102901.84;5071675;28;20457;-40
2021/09/02 05:13:23;;;;;;;5.53;2.60;;;;;;;16.23;82.07;102902.69;5072293;28;20051;-40
2021/09/02 05:15:50;;;;;;;4.38;2.40;;;;;;;16.23;81.93;102902.69;5069324;28;20071;-40
2021/09/02 05:18:18;;;;;;;5.28;2.53;;;;;;;16.25;81.83;102905.22;5069927;28;20054;-38
2021/09/02 05:20:46;;;;;;;5.32;2.25;;;;;;;16.27;81.69;102914.25;5071979;28;20496;-40
2021/09/02 05:23:14;;;;;;;5.90;2.60;;;;;;;16.27;81.62;102908.59;5070370;28;20562;-37
2021/09/02 05:25:43;;;;;;;5.10;2.33;;;;;;;16.29;81.85;102906.34;5072039;28;20111;-38
2021/09/02 05:28:11;;;;;;;5.38;2.63;;;;;;;16.29;81.83;102912.81;5071481;28;20056;-34
2021/09/02 05:30:39;;;;;;;3.63;2.15;;;;;;;16.29;81.82;102911.97;5071777;28;20092;-37
2021/09/02 05:33:07;;;;;;;4.82;2.40;;;;;;;16.30;81.87;102920.16;5072132;28;20044;-40
2021/09/02 05:35:34;;;;;;;4.45;2.30;;;;;;;16.31;81.71;102921.84;5072266;28;20044;-36
2021/09/02 05:38:02;;;;;;;3.22;1.92;;;;;;;16.31;81.83;102912.53;5071412;28;20123;-40
2021/09/02 05:40:30;;;;;;;6.05;2.60;;;;;;;16.30;81.81;102910.84;5072322;28;20045;-40
2021/09/02 05:43:00;;;;;;;3.67;2.40;;;;;;;16.29;81.92;102914.81;5071397;28;20114;-38
2021/09/02 05:45:27;;;;;;;5.68;2.80;;;;;;;16.29;82.10;102906.34;5072296;28;20415;-36
2021/09/02 05:47:55;;;;;;;5.35;2.70;;;;;;;16.29;81.97;102909.16;5071852;28;20088;-37
2021/09/02 05:50:23;;;;;;;5.28;2.50;;;;;;;16.30;82.02;102910.84;5070155;28;20419;-37
2021/09/02 05:52:51;;;;;;;4.88;2.80;;;;;;;16.30;82.16;102916.50;5071317;28;20136;-39
2021/09/02 05:55:18;;;;;;;5.55;2.67;;;;;;;16.31;82.22;102907.75;5072053;28;20127;-35
2021/09/02 05:57:46;;;;;;;4.97;2.70;;;;;;;16.33;82.11;102913.09;5071091;28;20123;-38
2021/09/02 06:00:16;;;;;;;7.38;3.83;;;;;;;16.33;82.18;102904.66;5067155;28;20106;-37
2021/09/02 06:02:44;;;;;;;7.07;3.33;;;;;;;16.30;82.17;102911.69;5071012;28;20048;-37
2021/09/02 06:05:12;;;;;;;5.00;3.00;;;;;;;16.31;82.12;102904.09;5069039;28;20047;-36
2021/09/02 06:07:41;;;;;;;6.53;3.80;;;;;;;16.31;81.90;102906.91;5068954;28;20055;-36
2021/09/02 06:10:09;;;;;;;6.22;3.00;;;;;;;16.30;81.91;102911.69;5069942;28;20418;-36
2021/09/02 06:12:37;;;;;;;5.72;3.33;;;;;;;16.30;81.88;102911.69;5070050;28;20127;-38
2021/09/02 06:15:07;;;;;;;6.18;3.10;;;;;;;16.31;81.40;102909.72;5069662;28;20517;-38
2021/09/02 06:17:37;;;;;;;9.30;4.32;;;;;;;16.32;81.18;102906.63;5070860;28;20075;-35
2021/09/02 06:20:06;;;;;;;4.28;2.45;;;;;;;16.33;81.17;102901.81;5070014;28;20052;-39
2021/09/02 06:22:33;;;;;;;4.22;2.55;;;;;;;16.36;81.01;102910.56;5070507;28;20049;-38
2021/09/02 06:25:07;;;;;;;4.60;2.78;;;;;;;16.41;81.00;102912.47;5069955;28;20044;-39
2021/09/02 06:27:35;;;;;;;4.30;2.45;;;;;;;16.45;80.84;102914.44;5070630;28;20056;-39
2021/09/02 06:30:04;;;;;;;4.18;2.40;;;;;;;16.49;80.73;102917.53;5070741;28;20052;-39
2021/09/02 06:32:32;;;;;;;5.13;2.70;;;;;;;16.52;80.71;102909.34;5070084;28;20483;-37
2021/09/02 06:35:01;;;;;;;4.90;2.42;;;;;;;16.57;80.57;102910.47;5069819;28;20087;-40
2021/09/02 06:37:30;;;;;;;3.97;2.03;;;;;;;16.60;80.65;102916.34;5070548;28;20525;-36
2021/09/02 06:39:57;;;;;;;5.57;2.88;;;;;;;16.64;80.59;102914.66;5069273;28;20139;-36
2021/09/02 06:42:25;;;;;;;4.38;2.30;;;;;;;16.67;80.58;102916.91;5070863;28;20063;-37
2021/09/02 06:44:53;;;;;;;4.32;2.47;;;;;;;16.70;80.61;102916.31;5069973;28;20056;-39
2021/09/02 06:47:21;;;;;;;5.38;2.80;;;;;;;16.75;80.63;102918.28;5069917;28;20521;-37
2021/09/02 06:50:16;;;;;;;3.88;2.60;;;;;;;16.75;80.50;102916.31;5069859;28;20051;-39
2021/09/02 06:52:44;;;;;;;3.80;2.10;;;;;;;16.79;80.39;102919.34;5070241;28;20052;-38
2021/09/02 06:55:12;;;;;;;6.95;3.40;;;;;;;16.83;80.41;102924.13;5069348;28;20131;-37
2021/09/02 06:57:40;;;;;;;4.70;2.45;;;;;;;16.87;80.31;102916.78;5070276;28;20507;-35
2021/09/02 07:00:10;;;;;;;5.35;3.20;;;;;;;16.92;79.92;102906.59;5069409;28;20047;-39
2021/09/02 07:02:37;;;;;;;3.70;2.35;;;;;;;16.95;79.89;102917.31;5070195;28;20491;-38
2021/09/02 07:05:08;;;;;;;4.30;2.28;;;;;;;16.99;79.55;102915.56;5069773;28;20070;-39
2021/09/02 07:07:37;;;;;;;3.53;2.13;;;;;;;17.05;79.46;102911.56;5069413;28;20399;-34
2021/09/02 07:10:07;;;;;;;4.68;2.70;;;;;;;17.10;79.75;102912.38;5069994;28;20049;-37
2021/09/02 07:12:34;;;;;;;5.00;2.72;;;;;;;17.15;79.92;102915.19;5070072;28;20041;-39
2021/09/02 07:15:02;;;;;;;4.80;2.55;;;;;;;17.19;79.51;102915.41;5069395;28;20049;-36
2021/09/02 07:17:31;;;;;;;5.18;3.20;;;;;;;17.21;79.66;102922.44;5069786;28;20055;-37
2021/09/02 07:19:59;;;;;;;4.53;2.60;;;;;;;17.27;79.65;102919.59;5069727;28;20061;-37
2021/09/02 07:22:27;;;;;;;6.32;3.00;;;;;;;17.31;79.58;102917.88;5067265;28;20052;-37
2021/09/02 07:24:56;;;;;;;4.95;3.17;;;;;;;17.36;79.62;102909.38;5070196;28;20040;-38
2021/09/02 07:27:24;;;;;;;5.75;3.15;;;;;;;17.41;79.18;102914.94;5069545;28;20488;-40
2021/09/02 07:29:52;;;;;;;15.20;3.92;;;;;;;17.44;78.79;102912.38;5069378;28;20047;-42
2021/09/02 07:32:20;;;;;;;12.32;4.43;;;;;;;17.46;78.44;102921.41;5070142;28;20040;-39
2021/09/02 07:34:49;;;;;;;24.13;6.10;;;;;;;17.51;78.09;102924.19;5070357;28;20495;-41
2021/09/02 07:37:19;;;;;;;9.52;3.53;;;;;;;17.55;78.04;102921.63;5068517;28;20380;-40
2021/09/02 07:39:47;;;;;;;22.20;4.93;;;;;;;17.59;78.01;102919.88;5069143;28;20083;-39
2021/09/02 07:42:16;;;;;;;7.78;3.28;;;;;;;17.63;77.81;102918.13;5067693;28;20387;-40
2021/09/02 07:44:44;;;;;;;5.20;2.47;;;;;;;17.66;77.57;102914.75;5069010;28;20145;-41
2021/09/02 07:47:12;;;;;;;5.57;2.67;;;;;;;17.68;77.31;102917.28;5071085;28;20124;-38
2021/09/02 07:49:39;;;;;;;4.65;2.70;;;;;;;17.68;77.17;102906.84;5071867;28;20056;-41
2021/09/02 07:52:09;;;;;;;7.15;3.33;;;;;;;17.69;77.03;102914.16;5072943;28;20491;-38
2021/09/02 07:54:37;;;;;;;7.20;3.40;;;;;;;17.72;76.92;102918.38;5074292;28;20044;-36
2021/09/02 07:57:05;;;;;;;6.50;2.92;;;;;;;17.76;77.19;102906.19;5073375;28;20051;-39
2021/09/02 07:59:34;;;;;;;4.07;2.70;;;;;;;17.81;77.29;102913.75;5073892;28;20131;-38
2021/09/02 08:02:02;;;;;;;6.25;3.25;;;;;;;17.84;77.22;102911.19;5073805;28;20074;-37
2021/09/02 08:04:30;;;;;;;5.60;3.15;;;;;;;17.88;76.86;102917.91;5073504;28;20098;-39
2021/09/02 08:06:58;;;;;;;6.93;3.30;;;;;;;17.93;77.10;102910.53;5073887;28;20091;-40
2021/09/02 08:09:25;;;;;;;8.90;3.42;;;;;;;17.97;77.21;102920.94;5073782;28;20040;-37
2021/09/02 08:11:53;;;;;;;6.22;3.47;;;;;;;18.02;76.95;102920.03;5072917;28;20091;-41
2021/09/02 08:14:21;;;;;;;7.22;3.42;;;;;;;18.04;76.41;102929.91;5073474;28;20438;-42
2021/09/02 08:16:50;;;;;;;4.43;2.65;;;;;;;18.03;76.04;102928.22;5073803;28;20044;-36
2021/09/02 08:19:18;;;;;;;5.40;2.90;;;;;;;18.03;75.34;102922.56;5072979;28;20068;-42
2021/09/02 08:21:47;;;;;;;6.93;3.38;;;;;;;18.04;75.01;102917.75;5073656;28;20045;-37
2021/09/02 08:24:16;;;;;;;7.10;3.45;;;;;;;18.08;74.84;102921.66;5073207;28;20041;-38
2021/09/02 08:26:44;;;;;;;4.93;2.65;;;;;;;18.10;74.60;102923.06;5073323;28;20055;-42
2021/09/02 08:29:12;;;;;;;4.60;2.70;;;;;;;18.16;74.30;102924.69;5073348;28;20074;-38
2021/09/02 08:31:39;;;;;;;5.60;2.92;;;;;;;18.19;74.17;102926.88;5073142;28;20107;-39
2021/09/02 08:34:08;;;;;;;5.72;2.80;;;;;;;18.25;74.40;102933.31;5073380;28;20055;-38
2021/09/02 08:36:36;;;;;;;5.28;2.88;;;;;;;18.28;73.57;102931.88;5073542;28;20076;-37
2021/09/02 08:39:05;;;;;;;7.68;3.40;;;;;;;18.33;73.47;102934.66;5072367;28;20135;-43
2021/09/02 08:41:34;;;;;;;6.68;3.00;;;;;;;18.34;72.83;102940.00;5073611;28;20143;-36
2021/09/02 08:44:02;;;;;;;5.85;2.72;;;;;;;18.37;72.19;102935.75;5072984;28;20056;-40
2021/09/02 08:46:34;;;;;;;4.85;3.28;;;;;;;18.41;72.37;102939.63;5072948;28;20052;-39
2021/09/02 08:49:04;;;;;;;7.80;3.88;;;;;;;18.49;71.98;102933.31;5072827;28;20040;-38
2021/09/02 08:51:35;;;;;;;6.13;3.30;;;;;;;18.52;71.70;102932.72;5072988;28;20087;-36
2021/09/02 08:54:03;;;;;;;5.80;3.28;;;;;;;18.58;71.82;102937.16;5072376;28;20040;-39
2021/09/02 08:56:31;;;;;;;6.30;3.45;;;;;;;18.63;70.86;102937.13;5072591;28;20051;-38
2021/09/02 08:58:59;;;;;;;5.30;3.08;;;;;;;18.69;71.26;102943.56;5072757;28;20074;-42
2021/09/02 09:01:26;;;;;;;5.35;3.20;;;;;;;18.75;70.50;102942.34;5072399;28;20058;-42
2021/09/02 09:03:54;;;;;;;6.10;2.88;;;;;;;18.82;70.53;102937.13;5072555;28;20044;-39
2021/09/02 09:06:24;;;;;;;6.47;3.40;;;;;;;18.89;69.87;102940.44;5072556;28;20072;-34
2021/09/02 09:08:53;;;;;;;6.22;2.80;;;;;;;18.93;69.74;102939.53;5071176;28;20029;-41
2021/09/02 09:11:24;;;;;;;4.70;3.03;;;;;;;19.01;69.71;102935.16;5072522;28;20131;-43
2021/09/02 09:14:06;;;;;;;5.85;3.10;;;;;;;19.13;69.58;102943.19;5072119;28;20049;-41
2021/09/02 09:16:47;;;;;;;5.60;2.90;;;;;;;19.24;69.43;102937.06;5072358;28;20391;-39
2021/09/02 09:19:34;;;;;;;4.90;2.90;;;;;;;19.30;67.62;102934.16;5072757;28;20055;-36
2021/09/02 09:22:04;;;;;;;4.80;2.50;;;;;;;19.31;67.70;102941.50;5071983;28;20139;-39
2021/09/02 09:24:48;;;;;;;5.85;3.47;;;;;;;19.41;67.30;102928.00;5072147;28;20044;-37
2021/09/02 09:27:18;;;;;;;4.93;3.00;;;;;;;19.51;67.96;102927.88;5070507;28;20045;-38
2021/09/02 09:30:04;;;;;;;5.22;3.10;;;;;;;19.69;67.48;102934.63;5071850;28;20075;-40
2021/09/02 09:32:37;;;;;;;6.20;3.00;;;;;;;19.83;66.97;102926.16;5071004;28;20040;-39
2021/09/02 09:35:06;;;;;;;5.72;3.22;;;;;;;19.94;66.22;102933.31;5071330;28;20040;-34
2021/09/02 09:37:38;;;;;;;6.40;3.08;;;;;;;20.03;66.28;102939.09;5072626;28;20110;-38
2021/09/02 09:40:17;;;;;;;5.55;3.17;;;;;;;20.16;66.28;102938.28;5071974;28;20048;-35
2021/09/02 09:43:02;;;;;;;4.10;2.90;;;;;;;20.26;65.08;102938.06;5069317;28;20045;-36
2021/09/02 09:45:39;;;;;;;6.45;3.65;;;;;;;20.35;65.11;102936.19;5071695;28;20056;-38
2021/09/02 09:48:32;;;;;;;6.80;3.50;;;;;;;20.44;63.86;102922.97;5072089;28;20044;-34
2021/09/02 09:51:12;;;;;;;4.75;2.45;;;;;;;20.54;64.41;102917.09;5056739;28;20419;-38
2021/09/02 09:53:42;;;;;;;5.82;2.83;;;;;;;20.66;64.09;102922.22;5072097;28;20187;-36
2021/09/02 09:56:12;;;;;;;6.00;3.38;;;;;;;20.76;63.44;102924.00;5070874;28;20079;-39
2021/09/02 09:58:40;;;;;;;5.45;3.10;;;;;;;20.77;62.53;102920.00;5071857;28;20475;-39
2021/09/02 10:01:08;;;;;;;4.90;2.72;;;;;;;20.79;63.06;102923.31;5071560;28;20128;-35
2021/09/02 10:03:36;;;;;;;5.05;3.20;;;;;;;20.87;63.11;102928.25;5071036;28;20132;-40
2021/09/02 10:06:07;;;;;;;6.10;3.17;;;;;;;20.95;62.75;102936.03;5071278;28;20044;-40
2021/09/02 10:08:36;;;;;;;4.78;2.92;;;;;;;21.01;63.00;102933.88;5070521;28;20113;-36
2021/09/02 10:11:06;;;;;;;5.80;2.97;;;;;;;21.08;63.04;102937.13;5070462;28;20467;-43
2021/09/02 10:13:36;;;;;;;4.78;3.03;;;;;;;21.13;62.77;102934.19;5071390;28;20047;-42
2021/09/02 10:16:05;;;;;;;5.72;3.22;;;;;;;21.12;62.03;102930.50;5071260;28;20143;-39
2021/09/02 10:18:42;;;;;;;6.90;3.25;;;;;;;21.18;62.11;102926.34;5070665;28;20161;-40
2021/09/02 10:21:11;;;;;;;5.75;3.28;;;;;;;21.24;62.08;102925.13;5070929;28;20048;-44
2021/09/02 10:23:39;;;;;;;5.03;3.00;;;;;;;21.29;62.12;102927.84;5071405;28;20048;-40
2021/09/02 10:26:06;;;;;;;4.47;2.58;;;;;;;21.35;61.82;102945.59;5070832;28;20080;-36
2021/09/02 10:28:39;;;;;;;6.60;3.40;;;;;;;21.37;61.87;102919.72;5071144;28;20060;-40
2021/09/02 10:31:20;;;;;;;5.63;3.05;;;;;;;21.40;61.37;102925.56;5070719;28;20048;-36
2021/09/02 10:33:49;;;;;;;4.88;3.13;;;;;;;21.44;61.74;102918.09;5070651;28;20055;-34
2021/09/02 10:36:44;;;;;;;5.35;2.95;;;;;;;21.52;60.60;102916.47;5071380;28;20513;-36
2021/09/02 10:39:30;;;;;;;5.80;3.30;;;;;;;21.53;61.11;102912.47;5070256;28;20514;-37
2021/09/02 10:41:57;;;;;;;6.65;3.38;;;;;;;21.53;60.90;102907.63;5070839;28;20053;-37
2021/09/02 10:44:51;;;;;;;5.32;3.00;;;;;;;21.56;60.06;102904.16;5070857;28;20403;-40
2021/09/02 10:47:19;;;;;;;4.82;2.72;;;;;;;21.53;61.11;102898.28;5070310;28;20051;-38
2021/09/02 10:50:00;;;;;;;4.28;2.90;;;;;;;21.58;60.41;102907.47;5070864;28;20075;-37
2021/09/02 10:52:29;;;;;;;5.88;2.83;;;;;;;21.59;60.66;102905.47;5070119;28;20466;-36
2021/09/02 10:55:28;;;;;;;5.95;2.83;;;;;;;21.66;60.25;102905.88;5071078;28;20132;-42
2021/09/02 10:57:57;;;;;;;5.68;2.78;;;;;;;21.66;60.88;102903.88;5071035;28;20406;-42
2021/09/02 11:00:34;;;;;;;5.80;2.75;;;;;;;21.73;60.79;102902.56;5070457;28;20076;-43
2021/09/02 11:03:12;;;;;;;4.15;2.47;;;;;;;21.80;60.93;102911.44;5070661;28;20041;-43
2021/09/02 11:05:41;;;;;;;5.60;3.10;;;;;;;21.85;60.65;102908.47;5070955;28;20135;-41
2021/09/02 11:08:10;;;;;;;4.38;2.83;;;;;;;21.92;60.05;102911.69;5069960;28;20144;-42
2021/09/02 11:10:38;;;;;;;5.28;2.90;;;;;;;21.97;60.24;102903.88;5070756;28;20054;-39
2021/09/02 11:13:07;;;;;;;4.72;3.05;;;;;;;22.06;59.90;102903.09;5070530;28;20064;-37
2021/09/02 11:15:36;;;;;;;4.63;2.92;;;;;;;22.12;58.85;102902.63;5069222;28;20066;-39
2021/09/02 11:18:06;;;;;;;4.60;2.80;;;;;;;22.12;59.42;102896.09;5070648;28;20140;-42
2021/09/02 11:20:43;;;;;;;4.85;2.70;;;;;;;22.15;59.29;102893.44;5072308;28;20080;-40
2021/09/02 11:23:13;;;;;;;6.15;3.00;;;;;;;22.23;59.30;102900.31;5074468;28;20484;-40
2021/09/02 11:25:43;;;;;;;7.82;3.65;;;;;;;22.22;59.09;102896.63;5074426;28;20458;-38
2021/09/02 11:28:11;;;;;;;5.70;3.20;;;;;;;22.22;59.14;102896.63;5074282;28;20049;-41
2021/09/02 11:30:40;;;;;;;9.15;3.08;;;;;;;22.27;58.62;102892.81;5074442;28;20058;-42
2021/09/02 11:33:08;;;;;;;5.78;3.28;;;;;;;22.28;58.29;102894.47;5074902;28;20427;-39
2021/09/02 11:35:37;;;;;;;6.28;3.05;;;;;;;22.30;58.87;102883.63;5073580;28;20509;-37